sensor_id;sensor_type;location;lat;lon;timestamp;P1;durP1;ratioP1;P2;durP2;ratioP2
20000;SDS011;10161;41.188;-8.642;2023-01-25T00:01:45;47.27;;;34.47;;
20000;SDS011;10161;41.188;-8.642;2023-01-25T00:04:12;38.53;;;28.40;;
20000;SDS011;10161;41.188;-8.642;2023-01-25T00:06:39;38.27;;;29.60;;
20000;SDS011;10161;41.188;-8.642;2023-01-25T00:09:06;43.73;;;31.67;;
20000;SDS011;10161;41.188;-8.642;2023-01-25T00:11:36;39.43;;;29.10;;
20000;SDS011;10161;41.188;-8.642;2023-01-25T00:14:04;41.00;;;29.63;;
20000;SDS011;10161;41.188;-8.642;2023-01-25T00:16:31;41.03;;;32.07;;
20000;SDS011;10161;41.188;-8.642;2023-01-25T00:18:58;40.57;;;28.20;;
20000;SDS011;10161;41.188;-8.642;2023-01-25T00:21:25;45.83;;;32.70;;
20000;SDS011;10161;41.188;-8.642;2023-01-25T00:23:52;40.70;;;30.57;;
20000;SDS011;10161;41.188;-8.642;2023-01-25T00:26:19;45.00;;;31.60;;
20000;SDS011;10161;41.188;-8.642;2023-01-25T00:28:49;43.17;;;30.67;;
20000;SDS011;10161;41.188;-8.642;2023-01-25T00:31:31;47.30;;;32.60;;
20000;SDS011;10161;41.188;-8.642;2023-01-25T00:34:05;43.43;;;31.23;;
20000;SDS011;10161;41.188;-8.642;2023-01-25T00:36:38;43.07;;;30.17;;
20000;SDS011;10161;41.188;-8.642;2023-01-25T00:39:08;46.07;;;31.40;;
20000;SDS011;10161;41.188;-8.642;2023-01-25T00:41:37;44.47;;;32.07;;
20000;SDS011;10161;41.188;-8.642;2023-01-25T00:44:06;49.73;;;32.50;;
20000;SDS011;10161;41.188;-8.642;2023-01-25T00:46:33;51.63;;;35.17;;
20000;SDS011;10161;41.188;-8.642;2023-01-25T00:49:00;49.10;;;34.47;;
20000;SDS011;10161;41.188;-8.642;2023-01-25T00:51:27;47.70;;;32.50;;
20000;SDS011;10161;41.188;-8.642;2023-01-25T00:53:54;46.70;;;33.63;;
20000;SDS011;10161;41.188;-8.642;2023-01-25T00:56:21;40.27;;;31.60;;
20000;SDS011;10161;41.188;-8.642;2023-01-25T00:58:48;39.67;;;28.93;;
20000;SDS011;10161;41.188;-8.642;2023-01-25T01:01:16;39.17;;;27.80;;
20000;SDS011;10161;41.188;-8.642;2023-01-25T01:03:44;34.87;;;27.67;;
20000;SDS011;10161;41.188;-8.642;2023-01-25T01:06:11;34.57;;;24.73;;
20000;SDS011;10161;41.188;-8.642;2023-01-25T01:08:38;30.93;;;22.60;;
20000;SDS011;10161;41.188;-8.642;2023-01-25T01:11:07;28.20;;;22.60;;
20000;SDS011;10161;41.188;-8.642;2023-01-25T01:13:35;29.37;;;21.50;;
20000;SDS011;10161;41.188;-8.642;2023-01-25T01:16:04;33.83;;;23.20;;
20000;SDS011;10161;41.188;-8.642;2023-01-25T01:18:38;33.50;;;25.47;;
20000;SDS011;10161;41.188;-8.642;2023-01-25T01:21:06;38.23;;;26.73;;
20000;SDS011;10161;41.188;-8.642;2023-01-25T01:23:34;39.07;;;27.57;;
20000;SDS011;10161;41.188;-8.642;2023-01-25T01:26:01;36.30;;;28.27;;
20000;SDS011;10161;41.188;-8.642;2023-01-25T01:28:29;40.47;;;28.40;;
20000;SDS011;10161;41.188;-8.642;2023-01-25T01:30:58;40.60;;;29.57;;
20000;SDS011;10161;41.188;-8.642;2023-01-25T01:33:26;41.53;;;27.17;;
20000;SDS011;10161;41.188;-8.642;2023-01-25T01:35:54;37.50;;;28.50;;
20000;SDS011;10161;41.188;-8.642;2023-01-25T01:38:22;40.47;;;28.53;;
20000;SDS011;10161;41.188;-8.642;2023-01-25T01:40:49;35.80;;;27.27;;
20000;SDS011;10161;41.188;-8.642;2023-01-25T01:43:17;37.37;;;29.20;;
20000;SDS011;10161;41.188;-8.642;2023-01-25T01:45:49;37.73;;;29.70;;
20000;SDS011;10161;41.188;-8.642;2023-01-25T01:48:19;37.40;;;27.70;;
20000;SDS011;10161;41.188;-8.642;2023-01-25T01:50:49;40.90;;;28.57;;
20000;SDS011;10161;41.188;-8.642;2023-01-25T01:53:19;39.83;;;27.73;;
20000;SDS011;10161;41.188;-8.642;2023-01-25T01:55:48;39.67;;;28.40;;
20000;SDS011;10161;41.188;-8.642;2023-01-25T01:58:15;42.03;;;30.33;;
20000;SDS011;10161;41.188;-8.642;2023-01-25T02:00:42;40.70;;;29.17;;
20000;SDS011;10161;41.188;-8.642;2023-01-25T02:03:09;41.00;;;29.87;;
20000;SDS011;10161;41.188;-8.642;2023-01-25T02:05:39;42.20;;;29.80;;
20000;SDS011;10161;41.188;-8.642;2023-01-25T02:08:12;36.90;;;27.30;;
20000;SDS011;10161;41.188;-8.642;2023-01-25T02:10:41;45.03;;;30.60;;
20000;SDS011;10161;41.188;-8.642;2023-01-25T02:13:09;37.17;;;25.83;;
20000;SDS011;10161;41.188;-8.642;2023-01-25T02:15:37;33.80;;;26.30;;
20000;SDS011;10161;41.188;-8.642;2023-01-25T02:18:05;33.90;;;25.53;;
20000;SDS011;10161;41.188;-8.642;2023-01-25T02:20:34;33.97;;;26.30;;
20000;SDS011;10161;41.188;-8.642;2023-01-25T02:23:04;32.70;;;25.73;;
20000;SDS011;10161;41.188;-8.642;2023-01-25T02:25:36;38.33;;;26.50;;
20000;SDS011;10161;41.188;-8.642;2023-01-25T02:28:05;32.97;;;24.40;;
20000;SDS011;10161;41.188;-8.642;2023-01-25T02:30:35;32.50;;;23.20;;
20000;SDS011;10161;41.188;-8.642;2023-01-25T02:33:02;33.07;;;24.43;;
20000;SDS011;10161;41.188;-8.642;2023-01-25T02:35:36;30.23;;;21.37;;
20000;SDS011;10161;41.188;-8.642;2023-01-25T02:38:06;30.73;;;21.30;;
20000;SDS011;10161;41.188;-8.642;2023-01-25T02:40:35;30.00;;;21.10;;
20000;SDS011;10161;41.188;-8.642;2023-01-25T02:43:09;27.13;;;21.23;;
20000;SDS011;10161;41.188;-8.642;2023-01-25T02:45:36;23.13;;;18.97;;
20000;SDS011;10161;41.188;-8.642;2023-01-25T02:48:04;23.93;;;18.83;;
20000;SDS011;10161;41.188;-8.642;2023-01-25T02:50:31;24.57;;;18.50;;
20000;SDS011;10161;41.188;-8.642;2023-01-25T02:52:58;25.17;;;18.40;;
20000;SDS011;10161;41.188;-8.642;2023-01-25T02:55:25;20.53;;;16.00;;
20000;SDS011;10161;41.188;-8.642;2023-01-25T02:57:54;21.47;;;15.97;;
20000;SDS011;10161;41.188;-8.642;2023-01-25T03:00:21;21.17;;;15.33;;
20000;SDS011;10161;41.188;-8.642;2023-01-25T03:02:48;19.90;;;15.40;;
20000;SDS011;10161;41.188;-8.642;2023-01-25T03:05:15;20.37;;;15.17;;
20000;SDS011;10161;41.188;-8.642;2023-01-25T03:07:42;19.47;;;14.97;;
20000;SDS011;10161;41.188;-8.642;2023-01-25T03:10:10;16.70;;;12.67;;
20000;SDS011;10161;41.188;-8.642;2023-01-25T03:12:37;17.37;;;13.60;;
20000;SDS011;10161;41.188;-8.642;2023-01-25T03:15:06;16.90;;;11.77;;
20000;SDS011;10161;41.188;-8.642;2023-01-25T03:17:35;16.00;;;11.20;;
20000;SDS011;10161;41.188;-8.642;2023-01-25T03:20:02;12.73;;;10.13;;
20000;SDS011;10161;41.188;-8.642;2023-01-25T03:22:30;17.10;;;12.60;;
20000;SDS011;10161;41.188;-8.642;2023-01-25T03:24:57;16.87;;;13.30;;
20000;SDS011;10161;41.188;-8.642;2023-01-25T03:27:24;17.80;;;14.33;;
20000;SDS011;10161;41.188;-8.642;2023-01-25T03:29:51;17.27;;;13.73;;
20000;SDS011;10161;41.188;-8.642;2023-01-25T03:32:20;18.70;;;13.90;;
20000;SDS011;10161;41.188;-8.642;2023-01-25T03:34:47;18.73;;;13.30;;
20000;SDS011;10161;41.188;-8.642;2023-01-25T03:37:14;17.33;;;13.80;;
20000;SDS011;10161;41.188;-8.642;2023-01-25T03:39:41;16.80;;;14.10;;
20000;SDS011;10161;41.188;-8.642;2023-01-25T03:42:09;17.90;;;13.67;;
20000;SDS011;10161;41.188;-8.642;2023-01-25T03:44:37;21.20;;;14.90;;
20000;SDS011;10161;41.188;-8.642;2023-01-25T03:47:04;18.80;;;14.23;;
20000;SDS011;10161;41.188;-8.642;2023-01-25T03:49:33;18.80;;;14.70;;
20000;SDS011;10161;41.188;-8.642;2023-01-25T03:52:00;16.87;;;13.27;;
20000;SDS011;10161;41.188;-8.642;2023-01-25T03:54:27;16.23;;;12.97;;
20000;SDS011;10161;41.188;-8.642;2023-01-25T03:56:54;18.63;;;14.67;;
20000;SDS011;10161;41.188;-8.642;2023-01-25T03:59:21;17.80;;;13.57;;
20000;SDS011;10161;41.188;-8.642;2023-01-25T04:01:48;18.93;;;14.10;;
20000;SDS011;10161;41.188;-8.642;2023-01-25T04:04:15;18.70;;;14.07;;
20000;SDS011;10161;41.188;-8.642;2023-01-25T04:06:43;18.67;;;13.37;;
20000;SDS011;10161;41.188;-8.642;2023-01-25T04:09:10;16.70;;;11.77;;
20000;SDS011;10161;41.188;-8.642;2023-01-25T04:11:38;17.80;;;12.30;;
20000;SDS011;10161;41.188;-8.642;2023-01-25T04:14:05;15.90;;;12.17;;
20000;SDS011;10161;41.188;-8.642;2023-01-25T04:16:32;17.10;;;13.17;;
20000;SDS011;10161;41.188;-8.642;2023-01-25T04:19:00;15.90;;;11.93;;
20000;SDS011;10161;41.188;-8.642;2023-01-25T04:21:27;13.20;;;10.57;;
20000;SDS011;10161;41.188;-8.642;2023-01-25T04:23:55;14.13;;;10.43;;
20000;SDS011;10161;41.188;-8.642;2023-01-25T04:26:22;15.07;;;10.57;;
20000;SDS011;10161;41.188;-8.642;2023-01-25T04:28:49;13.27;;;8.93;;
20000;SDS011;10161;41.188;-8.642;2023-01-25T04:31:16;12.40;;;8.90;;
20000;SDS011;10161;41.188;-8.642;2023-01-25T04:33:43;11.70;;;9.00;;
20000;SDS011;10161;41.188;-8.642;2023-01-25T04:36:10;10.67;;;8.50;;
20000;SDS011;10161;41.188;-8.642;2023-01-25T04:38:37;10.40;;;8.90;;
20000;SDS011;10161;41.188;-8.642;2023-01-25T04:41:07;11.07;;;9.17;;
20000;SDS011;10161;41.188;-8.642;2023-01-25T04:43:35;12.20;;;9.67;;
20000;SDS011;10161;41.188;-8.642;2023-01-25T04:46:01;10.33;;;8.40;;
20000;SDS011;10161;41.188;-8.642;2023-01-25T04:48:29;11.70;;;8.63;;
20000;SDS011;10161;41.188;-8.642;2023-01-25T04:50:56;9.20;;;8.20;;
20000;SDS011;10161;41.188;-8.642;2023-01-25T04:53:23;9.63;;;7.70;;
20000;SDS011;10161;41.188;-8.642;2023-01-25T04:55:50;8.00;;;7.03;;
20000;SDS011;10161;41.188;-8.642;2023-01-25T04:58:18;9.03;;;7.33;;
20000;SDS011;10161;41.188;-8.642;2023-01-25T05:00:46;8.80;;;6.93;;
20000;SDS011;10161;41.188;-8.642;2023-01-25T05:03:13;8.90;;;6.63;;
20000;SDS011;10161;41.188;-8.642;2023-01-25T05:05:43;7.30;;;6.30;;
20000;SDS011;10161;41.188;-8.642;2023-01-25T05:08:11;6.97;;;6.27;;
20000;SDS011;10161;41.188;-8.642;2023-01-25T05:10:38;7.20;;;5.97;;
20000;SDS011;10161;41.188;-8.642;2023-01-25T05:13:05;6.40;;;5.70;;
20000;SDS011;10161;41.188;-8.642;2023-01-25T05:15:33;6.90;;;5.60;;
20000;SDS011;10161;41.188;-8.642;2023-01-25T05:18:00;7.00;;;5.40;;
20000;SDS011;10161;41.188;-8.642;2023-01-25T05:20:27;5.23;;;4.47;;
20000;SDS011;10161;41.188;-8.642;2023-01-25T05:22:54;5.70;;;4.50;;
20000;SDS011;10161;41.188;-8.642;2023-01-25T05:25:22;6.20;;;4.23;;
20000;SDS011;10161;41.188;-8.642;2023-01-25T05:28:06;6.73;;;5.40;;
20000;SDS011;10161;41.188;-8.642;2023-01-25T05:30:34;5.90;;;4.83;;
20000;SDS011;10161;41.188;-8.642;2023-01-25T05:33:01;6.50;;;5.43;;
20000;SDS011;10161;41.188;-8.642;2023-01-25T05:35:29;8.63;;;6.10;;
20000;SDS011;10161;41.188;-8.642;2023-01-25T05:37:56;7.17;;;6.30;;
20000;SDS011;10161;41.188;-8.642;2023-01-25T05:40:23;7.23;;;6.50;;
20000;SDS011;10161;41.188;-8.642;2023-01-25T05:42:53;8.30;;;6.10;;
20000;SDS011;10161;41.188;-8.642;2023-01-25T05:45:21;7.07;;;6.00;;
20000;SDS011;10161;41.188;-8.642;2023-01-25T05:47:52;7.20;;;6.20;;
20000;SDS011;10161;41.188;-8.642;2023-01-25T05:50:19;8.00;;;5.77;;
20000;SDS011;10161;41.188;-8.642;2023-01-25T05:52:46;5.83;;;4.83;;
20000;SDS011;10161;41.188;-8.642;2023-01-25T05:55:13;5.70;;;4.60;;
20000;SDS011;10161;41.188;-8.642;2023-01-25T05:57:40;6.87;;;5.57;;
20000;SDS011;10161;41.188;-8.642;2023-01-25T06:00:08;7.13;;;5.73;;
20000;SDS011;10161;41.188;-8.642;2023-01-25T06:02:35;5.23;;;4.70;;
20000;SDS011;10161;41.188;-8.642;2023-01-25T06:05:04;6.30;;;5.70;;
20000;SDS011;10161;41.188;-8.642;2023-01-25T06:07:32;4.77;;;4.17;;
20000;SDS011;10161;41.188;-8.642;2023-01-25T06:10:00;5.47;;;4.37;;
20000;SDS011;10161;41.188;-8.642;2023-01-25T06:12:27;8.40;;;4.80;;
20000;SDS011;10161;41.188;-8.642;2023-01-25T06:14:54;5.90;;;4.73;;
20000;SDS011;10161;41.188;-8.642;2023-01-25T06:17:22;5.60;;;4.40;;
20000;SDS011;10161;41.188;-8.642;2023-01-25T06:19:49;5.70;;;4.67;;
20000;SDS011;10161;41.188;-8.642;2023-01-25T06:22:17;5.70;;;4.80;;
20000;SDS011;10161;41.188;-8.642;2023-01-25T06:24:44;6.30;;;4.60;;
20000;SDS011;10161;41.188;-8.642;2023-01-25T06:27:12;6.10;;;4.60;;
20000;SDS011;10161;41.188;-8.642;2023-01-25T06:29:42;4.60;;;3.83;;
20000;SDS011;10161;41.188;-8.642;2023-01-25T06:32:10;6.30;;;5.10;;
20000;SDS011;10161;41.188;-8.642;2023-01-25T06:34:39;4.90;;;3.73;;
20000;SDS011;10161;41.188;-8.642;2023-01-25T06:37:06;4.50;;;4.10;;
20000;SDS011;10161;41.188;-8.642;2023-01-25T06:39:35;4.00;;;3.60;;
20000;SDS011;10161;41.188;-8.642;2023-01-25T06:42:02;4.50;;;3.90;;
20000;SDS011;10161;41.188;-8.642;2023-01-25T06:44:29;3.53;;;3.23;;
20000;SDS011;10161;41.188;-8.642;2023-01-25T06:46:56;4.20;;;3.73;;
20000;SDS011;10161;41.188;-8.642;2023-01-25T06:49:23;5.53;;;3.20;;
20000;SDS011;10161;41.188;-8.642;2023-01-25T06:51:50;3.37;;;3.07;;
20000;SDS011;10161;41.188;-8.642;2023-01-25T06:54:17;3.40;;;3.10;;
20000;SDS011;10161;41.188;-8.642;2023-01-25T06:56:46;6.03;;;3.40;;
20000;SDS011;10161;41.188;-8.642;2023-01-25T06:59:13;3.40;;;3.10;;
20000;SDS011;10161;41.188;-8.642;2023-01-25T07:01:40;3.93;;;3.37;;
20000;SDS011;10161;41.188;-8.642;2023-01-25T07:04:07;3.80;;;3.40;;
20000;SDS011;10161;41.188;-8.642;2023-01-25T07:06:35;3.47;;;3.17;;
20000;SDS011;10161;41.188;-8.642;2023-01-25T07:09:02;3.20;;;2.90;;
20000;SDS011;10161;41.188;-8.642;2023-01-25T07:11:30;4.37;;;3.17;;
20000;SDS011;10161;41.188;-8.642;2023-01-25T07:13:58;5.73;;;3.47;;
20000;SDS011;10161;41.188;-8.642;2023-01-25T07:16:25;3.43;;;2.80;;
20000;SDS011;10161;41.188;-8.642;2023-01-25T07:18:53;4.53;;;3.17;;
20000;SDS011;10161;41.188;-8.642;2023-01-25T07:21:21;3.90;;;3.23;;
20000;SDS011;10161;41.188;-8.642;2023-01-25T07:23:48;3.80;;;2.87;;
20000;SDS011;10161;41.188;-8.642;2023-01-25T07:26:16;3.70;;;2.97;;
20000;SDS011;10161;41.188;-8.642;2023-01-25T07:28:44;3.50;;;2.93;;
20000;SDS011;10161;41.188;-8.642;2023-01-25T07:31:13;3.20;;;2.90;;
20000;SDS011;10161;41.188;-8.642;2023-01-25T07:33:40;3.47;;;3.17;;
20000;SDS011;10161;41.188;-8.642;2023-01-25T07:36:08;4.00;;;3.33;;
20000;SDS011;10161;41.188;-8.642;2023-01-25T07:38:36;3.60;;;3.27;;
20000;SDS011;10161;41.188;-8.642;2023-01-25T07:41:03;3.63;;;2.90;;
20000;SDS011;10161;41.188;-8.642;2023-01-25T07:43:30;3.83;;;3.37;;
20000;SDS011;10161;41.188;-8.642;2023-01-25T07:46:00;3.40;;;3.10;;
20000;SDS011;10161;41.188;-8.642;2023-01-25T07:48:29;7.50;;;3.30;;
20000;SDS011;10161;41.188;-8.642;2023-01-25T07:50:57;4.13;;;3.30;;
20000;SDS011;10161;41.188;-8.642;2023-01-25T07:53:36;3.73;;;3.33;;
20000;SDS011;10161;41.188;-8.642;2023-01-25T07:56:04;4.33;;;3.00;;
20000;SDS011;10161;41.188;-8.642;2023-01-25T07:58:32;3.60;;;2.80;;
20000;SDS011;10161;41.188;-8.642;2023-01-25T08:01:04;5.10;;;3.70;;
20000;SDS011;10161;41.188;-8.642;2023-01-25T08:03:33;3.70;;;3.00;;
20000;SDS011;10161;41.188;-8.642;2023-01-25T08:06:00;4.30;;;3.83;;
20000;SDS011;10161;41.188;-8.642;2023-01-25T08:08:29;5.10;;;3.57;;
20000;SDS011;10161;41.188;-8.642;2023-01-25T08:10:58;3.40;;;3.10;;
20000;SDS011;10161;41.188;-8.642;2023-01-25T08:13:25;4.40;;;4.00;;
20000;SDS011;10161;41.188;-8.642;2023-01-25T08:15:52;4.53;;;4.13;;
20000;SDS011;10161;41.188;-8.642;2023-01-25T08:18:19;5.97;;;4.90;;
20000;SDS011;10161;41.188;-8.642;2023-01-25T08:20:48;4.90;;;4.40;;
20000;SDS011;10161;41.188;-8.642;2023-01-25T08:23:15;4.23;;;3.50;;
20000;SDS011;10161;41.188;-8.642;2023-01-25T08:25:44;4.77;;;4.27;;
20000;SDS011;10161;41.188;-8.642;2023-01-25T08:28:12;4.10;;;3.70;;
20000;SDS011;10161;41.188;-8.642;2023-01-25T08:30:39;7.77;;;5.97;;
20000;SDS011;10161;41.188;-8.642;2023-01-25T08:33:06;7.20;;;6.10;;
20000;SDS011;10161;41.188;-8.642;2023-01-25T08:35:33;5.93;;;5.10;;
20000;SDS011;10161;41.188;-8.642;2023-01-25T08:38:02;6.53;;;4.50;;
20000;SDS011;10161;41.188;-8.642;2023-01-25T08:40:29;5.40;;;4.30;;
20000;SDS011;10161;41.188;-8.642;2023-01-25T08:42:57;8.00;;;4.47;;
20000;SDS011;10161;41.188;-8.642;2023-01-25T08:45:24;5.17;;;4.03;;
20000;SDS011;10161;41.188;-8.642;2023-01-25T08:47:51;5.30;;;3.80;;
20000;SDS011;10161;41.188;-8.642;2023-01-25T08:50:18;5.77;;;4.07;;
20000;SDS011;10161;41.188;-8.642;2023-01-25T08:52:45;4.00;;;3.60;;
20000;SDS011;10161;41.188;-8.642;2023-01-25T08:55:13;5.57;;;3.70;;
20000;SDS011;10161;41.188;-8.642;2023-01-25T08:57:40;4.23;;;3.63;;
20000;SDS011;10161;41.188;-8.642;2023-01-25T09:00:09;4.63;;;3.40;;
20000;SDS011;10161;41.188;-8.642;2023-01-25T09:02:36;4.77;;;3.83;;
20000;SDS011;10161;41.188;-8.642;2023-01-25T09:05:04;4.30;;;3.90;;
20000;SDS011;10161;41.188;-8.642;2023-01-25T09:07:31;4.17;;;3.77;;
20000;SDS011;10161;41.188;-8.642;2023-01-25T09:10:02;4.50;;;3.87;;
20000;SDS011;10161;41.188;-8.642;2023-01-25T09:12:34;4.70;;;3.60;;
20000;SDS011;10161;41.188;-8.642;2023-01-25T09:15:01;8.13;;;3.50;;
20000;SDS011;10161;41.188;-8.642;2023-01-25T09:17:28;4.07;;;3.63;;
20000;SDS011;10161;41.188;-8.642;2023-01-25T09:19:55;4.90;;;3.33;;
20000;SDS011;10161;41.188;-8.642;2023-01-25T09:22:22;3.97;;;3.40;;
20000;SDS011;10161;41.188;-8.642;2023-01-25T09:24:49;4.77;;;3.50;;
20000;SDS011;10161;41.188;-8.642;2023-01-25T09:27:18;3.97;;;3.57;;
20000;SDS011;10161;41.188;-8.642;2023-01-25T09:29:47;4.07;;;3.47;;
20000;SDS011;10161;41.188;-8.642;2023-01-25T09:32:14;4.87;;;3.10;;
20000;SDS011;10161;41.188;-8.642;2023-01-25T09:34:41;3.20;;;2.90;;
20000;SDS011;10161;41.188;-8.642;2023-01-25T09:37:08;7.33;;;3.67;;
20000;SDS011;10161;41.188;-8.642;2023-01-25T09:39:35;3.53;;;3.23;;
20000;SDS011;10161;41.188;-8.642;2023-01-25T09:42:15;4.90;;;3.50;;
20000;SDS011;10161;41.188;-8.642;2023-01-25T09:45:18;4.37;;;3.93;;
20000;SDS011;10161;41.188;-8.642;2023-01-25T09:47:50;4.13;;;3.63;;
20000;SDS011;10161;41.188;-8.642;2023-01-25T09:50:25;3.97;;;3.40;;
20000;SDS011;10161;41.188;-8.642;2023-01-25T09:53:05;4.80;;;3.23;;
20000;SDS011;10161;41.188;-8.642;2023-01-25T09:55:40;4.70;;;3.30;;
20000;SDS011;10161;41.188;-8.642;2023-01-25T09:58:10;4.07;;;3.30;;
20000;SDS011;10161;41.188;-8.642;2023-01-25T10:00:41;4.43;;;3.80;;
20000;SDS011;10161;41.188;-8.642;2023-01-25T10:03:13;4.23;;;3.70;;
20000;SDS011;10161;41.188;-8.642;2023-01-25T10:05:46;4.17;;;3.77;;
20000;SDS011;10161;41.188;-8.642;2023-01-25T10:08:17;4.13;;;3.30;;
20000;SDS011;10161;41.188;-8.642;2023-01-25T10:10:47;3.57;;;3.23;;
20000;SDS011;10161;41.188;-8.642;2023-01-25T10:13:17;5.03;;;3.60;;
20000;SDS011;10161;41.188;-8.642;2023-01-25T10:15:47;3.60;;;3.27;;
20000;SDS011;10161;41.188;-8.642;2023-01-25T10:18:18;4.57;;;3.80;;
20000;SDS011;10161;41.188;-8.642;2023-01-25T10:20:53;4.10;;;3.70;;
20000;SDS011;10161;41.188;-8.642;2023-01-25T10:23:26;7.10;;;3.30;;
20000;SDS011;10161;41.188;-8.642;2023-01-25T10:26:01;4.53;;;3.60;;
20000;SDS011;10161;41.188;-8.642;2023-01-25T10:28:35;5.07;;;3.80;;
20000;SDS011;10161;41.188;-8.642;2023-01-25T10:31:09;4.83;;;3.30;;
20000;SDS011;10161;41.188;-8.642;2023-01-25T10:33:43;4.80;;;3.90;;
20000;SDS011;10161;41.188;-8.642;2023-01-25T10:36:12;4.07;;;3.67;;
20000;SDS011;10161;41.188;-8.642;2023-01-25T10:38:40;3.73;;;3.43;;
20000;SDS011;10161;41.188;-8.642;2023-01-25T10:41:10;5.83;;;4.50;;
20000;SDS011;10161;41.188;-8.642;2023-01-25T10:43:40;4.50;;;3.40;;
20000;SDS011;10161;41.188;-8.642;2023-01-25T10:46:13;4.33;;;3.30;;
20000;SDS011;10161;41.188;-8.642;2023-01-25T10:48:43;4.97;;;4.47;;
20000;SDS011;10161;41.188;-8.642;2023-01-25T10:51:17;4.70;;;4.03;;
20000;SDS011;10161;41.188;-8.642;2023-01-25T10:53:57;4.60;;;3.97;;
20000;SDS011;10161;41.188;-8.642;2023-01-25T10:56:25;6.17;;;4.13;;
20000;SDS011;10161;41.188;-8.642;2023-01-25T10:59:04;4.80;;;4.30;;
20000;SDS011;10161;41.188;-8.642;2023-01-25T11:01:34;5.23;;;4.50;;
20000;SDS011;10161;41.188;-8.642;2023-01-25T11:04:02;6.33;;;5.10;;
20000;SDS011;10161;41.188;-8.642;2023-01-25T11:06:48;7.63;;;5.30;;
20000;SDS011;10161;41.188;-8.642;2023-01-25T11:09:29;6.13;;;5.27;;
20000;SDS011;10161;41.188;-8.642;2023-01-25T11:12:03;6.20;;;5.17;;
20000;SDS011;10161;41.188;-8.642;2023-01-25T11:14:40;7.30;;;5.80;;
20000;SDS011;10161;41.188;-8.642;2023-01-25T11:17:17;8.63;;;5.83;;
20000;SDS011;10161;41.188;-8.642;2023-01-25T11:19:48;7.43;;;5.80;;
20000;SDS011;10161;41.188;-8.642;2023-01-25T11:22:19;9.00;;;6.30;;
20000;SDS011;10161;41.188;-8.642;2023-01-25T11:24:49;9.93;;;7.10;;
20000;SDS011;10161;41.188;-8.642;2023-01-25T11:27:19;7.23;;;6.17;;
20000;SDS011;10161;41.188;-8.642;2023-01-25T11:30:05;10.20;;;7.47;;
20000;SDS011;10161;41.188;-8.642;2023-01-25T11:32:35;8.03;;;6.20;;
20000;SDS011;10161;41.188;-8.642;2023-01-25T11:35:04;7.90;;;5.90;;
20000;SDS011;10161;41.188;-8.642;2023-01-25T11:37:43;7.27;;;6.03;;
20000;SDS011;10161;41.188;-8.642;2023-01-25T11:40:22;8.63;;;6.70;;
20000;SDS011;10161;41.188;-8.642;2023-01-25T11:42:58;9.30;;;6.70;;
20000;SDS011;10161;41.188;-8.642;2023-01-25T11:45:34;10.43;;;6.57;;
20000;SDS011;10161;41.188;-8.642;2023-01-25T11:48:25;9.63;;;7.10;;
20000;SDS011;10161;41.188;-8.642;2023-01-25T11:51:09;9.23;;;6.07;;
20000;SDS011;10161;41.188;-8.642;2023-01-25T11:53:47;9.30;;;6.13;;
20000;SDS011;10161;41.188;-8.642;2023-01-25T11:56:24;8.43;;;5.70;;
20000;SDS011;10161;41.188;-8.642;2023-01-25T11:58:59;6.20;;;5.23;;
20000;SDS011;10161;41.188;-8.642;2023-01-25T12:01:36;7.43;;;5.57;;
20000;SDS011;10161;41.188;-8.642;2023-01-25T12:07:15;7.40;;;5.73;;
20000;SDS011;10161;41.188;-8.642;2023-01-25T12:09:53;5.93;;;4.80;;
20000;SDS011;10161;41.188;-8.642;2023-01-25T12:12:31;6.10;;;5.00;;
20000;SDS011;10161;41.188;-8.642;2023-01-25T12:15:11;5.73;;;4.80;;
20000;SDS011;10161;41.188;-8.642;2023-01-25T12:18:06;7.93;;;5.50;;
20000;SDS011;10161;41.188;-8.642;2023-01-25T12:20:47;6.23;;;4.63;;
20000;SDS011;10161;41.188;-8.642;2023-01-25T12:23:27;6.00;;;5.10;;
20000;SDS011;10161;41.188;-8.642;2023-01-25T12:26:14;6.00;;;5.17;;
20000;SDS011;10161;41.188;-8.642;2023-01-25T12:28:47;4.80;;;4.33;;
20000;SDS011;10161;41.188;-8.642;2023-01-25T12:31:17;9.57;;;5.53;;
20000;SDS011;10161;41.188;-8.642;2023-01-25T12:33:48;5.90;;;5.30;;
20000;SDS011;10161;41.188;-8.642;2023-01-25T12:36:20;6.07;;;5.17;;
20000;SDS011;10161;41.188;-8.642;2023-01-25T12:38:51;6.03;;;5.03;;
20000;SDS011;10161;41.188;-8.642;2023-01-25T12:41:27;6.33;;;5.20;;
20000;SDS011;10161;41.188;-8.642;2023-01-25T12:43:59;5.93;;;5.23;;
20000;SDS011;10161;41.188;-8.642;2023-01-25T12:46:33;6.73;;;5.37;;
20000;SDS011;10161;41.188;-8.642;2023-01-25T12:49:05;6.43;;;4.93;;
20000;SDS011;10161;41.188;-8.642;2023-01-25T12:51:38;7.07;;;5.70;;
20000;SDS011;10161;41.188;-8.642;2023-01-25T12:54:10;6.27;;;5.30;;
20000;SDS011;10161;41.188;-8.642;2023-01-25T12:56:47;6.73;;;5.33;;
20000;SDS011;10161;41.188;-8.642;2023-01-25T12:59:24;6.67;;;5.27;;
20000;SDS011;10161;41.188;-8.642;2023-01-25T13:01:54;5.93;;;5.10;;
20000;SDS011;10161;41.188;-8.642;2023-01-25T13:04:25;5.70;;;5.00;;
20000;SDS011;10161;41.188;-8.642;2023-01-25T13:07:06;6.03;;;4.90;;
20000;SDS011;10161;41.188;-8.642;2023-01-25T13:09:38;5.43;;;4.77;;
20000;SDS011;10161;41.188;-8.642;2023-01-25T13:12:11;6.07;;;5.47;;
20000;SDS011;10161;41.188;-8.642;2023-01-25T13:14:38;6.27;;;5.10;;
20000;SDS011;10161;41.188;-8.642;2023-01-25T13:17:10;5.83;;;5.00;;
20000;SDS011;10161;41.188;-8.642;2023-01-25T13:19:44;6.67;;;5.27;;
20000;SDS011;10161;41.188;-8.642;2023-01-25T13:22:12;6.40;;;5.30;;
20000;SDS011;10161;41.188;-8.642;2023-01-25T13:27:35;6.63;;;5.20;;
20000;SDS011;10161;41.188;-8.642;2023-01-25T13:30:13;7.10;;;6.00;;
20000;SDS011;10161;41.188;-8.642;2023-01-25T13:32:53;5.87;;;5.17;;
20000;SDS011;10161;41.188;-8.642;2023-01-25T13:35:24;7.50;;;5.57;;
20000;SDS011;10161;41.188;-8.642;2023-01-25T13:38:00;6.77;;;5.80;;
20000;SDS011;10161;41.188;-8.642;2023-01-25T13:40:32;6.30;;;5.70;;
20000;SDS011;10161;41.188;-8.642;2023-01-25T13:43:00;6.77;;;5.30;;
20000;SDS011;10161;41.188;-8.642;2023-01-25T13:45:28;7.00;;;5.67;;
20000;SDS011;10161;41.188;-8.642;2023-01-25T13:47:59;5.80;;;5.20;;
20000;SDS011;10161;41.188;-8.642;2023-01-25T13:50:30;6.93;;;5.20;;
20000;SDS011;10161;41.188;-8.642;2023-01-25T13:53:02;7.07;;;5.90;;
20000;SDS011;10161;41.188;-8.642;2023-01-25T13:55:36;6.93;;;6.10;;
20000;SDS011;10161;41.188;-8.642;2023-01-25T13:58:08;9.47;;;5.93;;
20000;SDS011;10161;41.188;-8.642;2023-01-25T14:00:35;7.20;;;6.13;;
20000;SDS011;10161;41.188;-8.642;2023-01-25T14:03:03;6.60;;;5.50;;
20000;SDS011;10161;41.188;-8.642;2023-01-25T14:05:31;6.03;;;5.40;;
20000;SDS011;10161;41.188;-8.642;2023-01-25T14:07:58;6.83;;;5.57;;
20000;SDS011;10161;41.188;-8.642;2023-01-25T14:10:26;7.47;;;5.87;;
20000;SDS011;10161;41.188;-8.642;2023-01-25T14:12:56;7.47;;;6.43;;
20000;SDS011;10161;41.188;-8.642;2023-01-25T14:15:25;7.70;;;6.00;;
20000;SDS011;10161;41.188;-8.642;2023-01-25T14:20:48;7.63;;;6.10;;
20000;SDS011;10161;41.188;-8.642;2023-01-25T14:23:23;7.00;;;6.30;;
20000;SDS011;10161;41.188;-8.642;2023-01-25T14:25:53;6.20;;;5.60;;
20000;SDS011;10161;41.188;-8.642;2023-01-25T14:28:22;8.87;;;5.93;;
20000;SDS011;10161;41.188;-8.642;2023-01-25T14:30:50;7.60;;;6.40;;
20000;SDS011;10161;41.188;-8.642;2023-01-25T14:33:19;8.67;;;6.70;;
20000;SDS011;10161;41.188;-8.642;2023-01-25T14:35:49;8.50;;;6.23;;
20000;SDS011;10161;41.188;-8.642;2023-01-25T14:38:23;7.23;;;6.53;;
20000;SDS011;10161;41.188;-8.642;2023-01-25T14:40:57;7.23;;;6.10;;
20000;SDS011;10161;41.188;-8.642;2023-01-25T14:43:26;8.03;;;6.73;;
20000;SDS011;10161;41.188;-8.642;2023-01-25T14:45:54;11.03;;;8.67;;
20000;SDS011;10161;41.188;-8.642;2023-01-25T14:48:37;11.43;;;7.60;;
20000;SDS011;10161;41.188;-8.642;2023-01-25T14:51:09;8.47;;;7.57;;